createdAt,value
2023-02-02T00:01:59.509Z,98371.75
2023-02-02T00:04:31.643Z,98368.53
2023-02-02T00:06:58.962Z,98365.81
2023-02-02T00:09:29.195Z,98373.06
2023-02-02T00:11:57.111Z,98369.00
2023-02-02T00:14:24.073Z,98374.81
2023-02-02T00:16:52.813Z,98375.47
2023-02-02T00:19:23.283Z,98371.78
2023-02-02T00:21:49.814Z,98370.78
2023-02-02T00:24:17.980Z,98374.97
2023-02-02T00:26:46.780Z,98374.63
2023-02-02T00:29:18.864Z,98364.03
2023-02-02T00:31:45.848Z,98365.81
2023-02-02T00:34:14.108Z,98358.25
2023-02-02T00:36:41.342Z,98361.00
2023-02-02T00:39:09.435Z,98356.59
2023-02-02T00:41:36.027Z,98357.44
2023-02-02T00:44:02.533Z,98359.66
2023-02-02T00:46:29.002Z,98357.91
2023-02-02T00:48:55.621Z,98356.66
2023-02-02T00:51:22.251Z,98352.13
2023-02-02T00:53:48.804Z,98348.91
2023-02-02T00:56:15.383Z,98341.94
2023-02-02T00:58:41.970Z,98346.00
2023-02-02T01:01:18.946Z,98347.28
2023-02-02T01:03:45.466Z,98347.31
2023-02-02T01:06:12.012Z,98342.44
2023-02-02T01:08:38.874Z,98343.75
2023-02-02T01:11:07.141Z,98343.25
2023-02-02T01:13:33.817Z,98338.91
2023-02-02T01:16:02.030Z,98342.59
2023-02-02T01:18:29.258Z,98337.94
2023-02-02T01:20:59.615Z,98341.00
2023-02-02T01:23:26.299Z,98359.72
2023-02-02T01:25:54.451Z,98342.78
2023-02-02T01:28:21.090Z,98340.97
2023-02-02T01:30:47.812Z,98344.72
2023-02-02T01:33:14.554Z,98339.84
2023-02-02T01:35:51.841Z,98343.22
2023-02-02T01:38:19.412Z,98335.00
2023-02-02T01:40:56.849Z,98335.31
2023-02-02T01:43:42.771Z,98339.34
2023-02-02T01:46:14.291Z,98332.06
2023-02-02T01:48:44.112Z,98335.28
2023-02-02T01:51:16.188Z,98336.13
2023-02-02T01:53:45.488Z,98341.09
2023-02-02T01:56:17.362Z,98335.28
2023-02-02T01:58:45.303Z,98336.25
2023-02-02T02:01:13.427Z,98333.34
2023-02-02T02:03:40.149Z,98331.03
2023-02-02T02:06:10.376Z,98329.72
2023-02-02T02:08:42.275Z,98329.41
2023-02-02T02:11:08.997Z,98330.38
2023-02-02T02:13:38.774Z,98332.97
2023-02-02T02:16:19.217Z,98321.38
2023-02-02T02:19:00.561Z,98318.34
2023-02-02T02:22:02.701Z,98324.94
2023-02-02T02:24:35.252Z,98326.06
2023-02-02T02:27:28.429Z,98334.28
2023-02-02T02:30:13.140Z,98327.03
2023-02-02T02:32:50.779Z,98318.97
2023-02-02T02:35:35.592Z,98323.34
2023-02-02T02:38:38.048Z,98325.84
2023-02-02T02:41:11.745Z,98337.16
2023-02-02T02:43:43.448Z,98332.16
2023-02-02T02:46:10.991Z,98324.88
2023-02-02T02:48:37.602Z,98330.22
2023-02-02T02:51:35.809Z,98319.59
2023-02-02T02:54:02.406Z,98336.97
2023-02-02T02:56:57.073Z,98335.09
2023-02-02T02:59:23.554Z,98339.78
2023-02-02T03:02:13.641Z,98340.91
2023-02-02T03:04:55.079Z,98334.47
2023-02-02T03:07:21.589Z,98338.81
2023-02-02T03:09:50.556Z,98339.16
2023-02-02T03:12:18.207Z,98332.38
2023-02-02T03:14:44.820Z,98334.16
2023-02-02T03:17:11.443Z,98337.88
2023-02-02T03:19:37.947Z,98334.31
2023-02-02T03:22:04.624Z,98331.09
2023-02-02T03:24:31.141Z,98332.53
2023-02-02T03:26:57.710Z,98342.03
2023-02-02T03:29:24.447Z,98345.25
2023-02-02T03:31:51.189Z,98340.44
2023-02-02T03:34:17.666Z,98341.53
2023-02-02T03:36:44.235Z,98345.72
2023-02-02T03:39:10.688Z,98346.84
2023-02-02T03:41:37.242Z,98347.81
2023-02-02T03:44:03.827Z,98342.53
2023-02-02T03:46:30.392Z,98343.44
2023-02-02T03:48:56.895Z,98349.75
2023-02-02T03:51:23.612Z,98346.19
2023-02-02T03:53:50.182Z,98347.50
2023-02-02T03:56:17.031Z,98358.41
2023-02-02T03:58:43.594Z,98355.66
2023-02-02T04:01:14.046Z,98357.53
2023-02-02T04:03:40.540Z,98357.13
2023-02-02T04:06:07.145Z,98357.59
2023-02-02T04:08:34.376Z,98356.84
2023-02-02T04:11:01.134Z,98355.25
2023-02-02T04:13:27.733Z,98365.53
2023-02-02T04:15:59.167Z,98356.63
2023-02-02T04:18:25.809Z,98364.38
2023-02-02T04:20:59.987Z,98368.44
2023-02-02T04:23:28.007Z,98369.88
2023-02-02T04:25:54.836Z,98368.75
2023-02-02T04:28:21.515Z,98363.94
2023-02-02T04:30:48.140Z,98369.06
2023-02-02T04:33:14.639Z,98367.06
2023-02-02T04:35:42.943Z,98376.53
2023-02-02T04:38:10.109Z,98368.47
2023-02-02T04:40:41.145Z,98376.53
2023-02-02T04:43:07.842Z,98381.03
2023-02-02T04:45:34.921Z,98397.31
2023-02-02T04:48:01.832Z,98375.22
2023-02-02T04:50:28.426Z,98374.91
2023-02-02T04:52:55.023Z,98376.06
2023-02-02T04:55:22.563Z,98374.09
2023-02-02T04:57:49.262Z,98375.72
2023-02-02T05:00:16.339Z,98378.53
2023-02-02T05:02:43.409Z,98378.94
2023-02-02T05:05:12.273Z,98371.22
2023-02-02T05:07:39.192Z,98372.00
2023-02-02T05:10:07.287Z,98372.78
2023-02-02T05:12:33.919Z,98373.25
2023-02-02T05:15:00.456Z,98369.38
2023-02-02T05:17:27.732Z,98381.00
2023-02-02T05:19:54.268Z,98377.88
2023-02-02T05:22:20.776Z,98375.94
2023-02-02T05:24:47.349Z,98382.03
2023-02-02T05:27:13.911Z,98392.50
2023-02-02T05:29:40.388Z,98380.00
2023-02-02T05:32:06.948Z,98393.16
2023-02-02T05:34:33.550Z,98390.41
2023-02-02T05:37:00.041Z,98397.81
2023-02-02T05:39:26.608Z,98390.13
2023-02-02T05:41:53.292Z,98399.91
2023-02-02T05:44:19.886Z,98391.63
2023-02-02T05:46:46.461Z,98394.53
2023-02-02T05:49:14.104Z,98399.41
2023-02-02T05:51:48.208Z,98396.66
2023-02-02T05:54:14.857Z,98407.97
2023-02-02T05:56:41.387Z,98398.63
2023-02-02T05:59:08.011Z,98387.47
2023-02-02T06:01:34.736Z,98396.34
2023-02-02T06:04:01.430Z,98389.78
2023-02-02T06:06:28.017Z,98399.09
2023-02-02T06:08:54.756Z,98405.25
2023-02-02T06:11:21.354Z,98387.72
2023-02-02T06:13:47.884Z,98397.88
2023-02-02T06:16:14.764Z,98397.38
2023-02-02T06:18:41.409Z,98412.13
2023-02-02T06:21:07.943Z,98412.41
2023-02-02T06:23:34.784Z,98408.25
2023-02-02T06:26:01.941Z,98420.19
2023-02-02T06:28:28.861Z,98421.78
2023-02-02T06:30:56.208Z,98416.59
2023-02-02T06:33:22.812Z,98434.47
2023-02-02T06:35:49.293Z,98411.13
2023-02-02T06:38:15.750Z,98419.84
2023-02-02T06:40:43.098Z,98422.22
2023-02-02T06:43:09.625Z,98421.00
2023-02-02T06:45:36.089Z,98436.53
2023-02-02T06:48:02.683Z,98430.72
2023-02-02T06:50:29.887Z,98429.31
2023-02-02T06:52:56.507Z,98423.53
2023-02-02T06:55:23.449Z,98424.22
2023-02-02T06:57:56.407Z,98432.28
2023-02-02T07:00:23.171Z,98432.28
2023-02-02T07:02:49.846Z,98436.19
2023-02-02T07:05:16.713Z,98433.75
2023-02-02T07:07:43.293Z,98435.28
2023-02-02T07:10:10.166Z,98433.84
2023-02-02T07:12:56.696Z,98433.34
2023-02-02T07:15:23.802Z,98431.25
2023-02-02T07:17:50.484Z,98439.97
2023-02-02T07:20:17.284Z,98442.38
2023-02-02T07:22:43.790Z,98434.44
2023-02-02T07:25:10.317Z,98431.28
2023-02-02T07:27:36.878Z,98436.41
2023-02-02T07:30:04.201Z,98444.34
2023-02-02T07:32:30.864Z,98435.78
2023-02-02T07:34:57.406Z,98434.16
2023-02-02T07:37:24.021Z,98435.78
2023-02-02T07:39:50.575Z,98429.34
2023-02-02T07:42:17.144Z,98432.09
2023-02-02T07:44:43.873Z,98438.72
2023-02-02T07:47:10.395Z,98442.28
2023-02-02T07:49:36.951Z,98444.53
2023-02-02T07:52:03.903Z,98443.25
2023-02-02T07:54:30.485Z,98439.81
2023-02-02T07:56:57.057Z,98430.63
2023-02-02T07:59:23.719Z,98449.69
2023-02-02T08:01:50.292Z,98434.16
2023-02-02T08:04:16.931Z,98444.34
2023-02-02T08:06:43.561Z,98445.75
2023-02-02T08:09:10.516Z,98446.75
2023-02-02T08:11:38.102Z,98448.19
2023-02-02T08:14:05.857Z,98448.19
2023-02-02T08:16:33.784Z,98454.03
2023-02-02T08:19:00.789Z,98449.66
2023-02-02T08:21:27.557Z,98453.97
2023-02-02T08:23:54.497Z,98458.75
2023-02-02T08:26:26.659Z,98469.72
2023-02-02T08:29:05.916Z,98443.53
2023-02-02T08:31:38.472Z,98439.66
2023-02-02T08:34:05.298Z,98451.63
2023-02-02T08:36:31.911Z,98449.66
2023-02-02T08:39:03.793Z,98451.44
2023-02-02T08:41:30.322Z,98440.28
2023-02-02T08:43:56.886Z,98439.94
2023-02-02T08:46:23.503Z,98437.34
2023-02-02T08:48:50.067Z,98443.38
2023-02-02T08:51:19.003Z,98438.81
2023-02-02T08:53:46.567Z,98440.94
2023-02-02T08:56:22.987Z,98438.41
2023-02-02T08:58:52.542Z,98456.97
2023-02-02T09:01:30.822Z,98447.06
2023-02-02T09:04:00.399Z,98445.19
2023-02-02T09:06:39.248Z,98447.06
2023-02-02T09:09:08.845Z,98447.88
2023-02-02T09:11:36.371Z,98454.16
2023-02-02T09:14:03.124Z,98443.19
2023-02-02T09:16:30.078Z,98443.50
2023-02-02T09:18:57.209Z,98432.69
2023-02-02T09:21:24.513Z,98432.88
2023-02-02T09:23:53.591Z,98441.25
2023-02-02T09:26:26.048Z,98434.16
2023-02-02T09:28:58.881Z,98439.97
2023-02-02T09:31:26.440Z,98432.22
2023-02-02T09:33:53.156Z,98441.94
2023-02-02T09:36:21.951Z,98443.84
2023-02-02T09:38:49.688Z,98439.31
2023-02-02T09:41:16.110Z,98427.66
2023-02-02T09:43:42.576Z,98434.13
2023-02-02T09:46:25.945Z,98430.72
2023-02-02T09:49:03.720Z,98420.41
2023-02-02T09:51:35.377Z,98410.56
2023-02-02T09:54:24.010Z,98422.09
2023-02-02T09:56:53.740Z,98424.63
2023-02-02T09:59:40.445Z,98424.78
2023-02-02T10:02:22.530Z,98411.06
2023-02-02T10:04:54.078Z,98413.84
2023-02-02T10:07:27.993Z,98413.81
2023-02-02T10:10:11.655Z,98424.19
2023-02-02T10:12:57.288Z,98417.09
2023-02-02T10:15:34.249Z,98419.34
2023-02-02T10:18:10.022Z,98402.69
2023-02-02T10:20:45.443Z,98408.69
2023-02-02T10:23:30.583Z,98411.75
2023-02-02T10:26:19.177Z,98412.56
2023-02-02T10:28:51.522Z,98414.50
2023-02-02T10:31:41.300Z,98410.78
2023-02-02T10:34:14.786Z,98398.78
2023-02-02T10:37:02.117Z,98410.78
2023-02-02T10:39:57.091Z,98414.00
2023-02-02T10:42:56.074Z,98422.09
2023-02-02T10:45:23.953Z,98415.59
2023-02-02T10:47:51.376Z,98431.59
2023-02-02T10:50:20.018Z,98417.72
2023-02-02T10:52:52.130Z,98425.31
2023-02-02T10:55:44.489Z,98452.78
2023-02-02T10:58:14.149Z,98408.69
2023-02-02T11:00:48.333Z,98421.59
2023-02-02T11:03:17.391Z,98431.28
2023-02-02T11:05:44.068Z,98413.84
2023-02-02T11:08:25.278Z,98416.75
2023-02-02T11:10:54.605Z,98425.63
2023-02-02T11:13:33.329Z,98431.59
2023-02-02T11:16:14.910Z,98424.66
2023-02-02T11:18:44.234Z,98422.22
2023-02-02T11:21:21.216Z,98445.66
2023-02-02T11:24:19.078Z,98422.56
2023-02-02T11:26:56.047Z,98427.06
2023-02-02T11:29:42.988Z,98435.16
2023-02-02T11:32:32.256Z,98436.44
2023-02-02T11:35:01.820Z,98441.13
2023-02-02T11:37:29.205Z,98435.78
2023-02-02T11:40:18.224Z,98436.59
2023-02-02T11:42:47.627Z,98440.00
2023-02-02T11:45:36.556Z,98443.72
2023-02-02T11:48:24.583Z,98437.75
2023-02-02T11:50:54.759Z,98441.47
2023-02-02T11:53:26.475Z,98435.81
2023-02-02T11:55:54.797Z,98452.28
2023-02-02T11:58:29.058Z,98457.94
2023-02-02T12:01:01.809Z,98446.81
2023-02-02T12:03:30.569Z,98454.22
2023-02-02T12:05:57.761Z,98453.41
2023-02-02T12:08:25.429Z,98454.03
2023-02-02T12:10:58.750Z,98451.63
2023-02-02T12:13:34.206Z,98453.69
2023-02-02T12:16:03.884Z,98454.97
2023-02-02T12:18:30.379Z,98463.22
2023-02-02T12:21:02.597Z,98450.63
2023-02-02T12:23:49.233Z,98467.09
2023-02-02T12:26:31.503Z,98465.66
2023-02-02T12:28:58.179Z,98459.63
2023-02-02T12:31:34.024Z,98465.16
2023-02-02T12:34:20.007Z,98456.44
2023-02-02T12:37:10.107Z,98463.34
2023-02-02T12:40:11.521Z,98456.56
2023-02-02T12:43:02.387Z,98456.72
2023-02-02T12:46:06.567Z,98447.06
2023-02-02T12:48:54.409Z,98452.91
2023-02-02T12:51:39.341Z,98456.59
2023-02-02T12:54:33.520Z,98463.22
2023-02-02T12:57:28.244Z,98453.84
2023-02-02T13:00:00.746Z,98469.16
2023-02-02T13:02:49.192Z,98468.34
2023-02-02T13:05:33.098Z,98461.84
2023-02-02T13:08:13.537Z,98469.16
2023-02-02T13:10:44.335Z,98469.28
2023-02-02T13:13:18.803Z,98456.72
2023-02-02T13:16:13.050Z,98456.69
2023-02-02T13:18:46.890Z,98458.13
2023-02-02T13:21:16.762Z,98469.97
2023-02-02T13:23:49.746Z,98469.63
2023-02-02T13:26:20.381Z,98460.59
2023-02-02T13:28:59.941Z,98474.13
2023-02-02T13:32:10.750Z,98457.88
2023-02-02T13:34:43.262Z,98483.03
2023-02-02T13:37:17.183Z,98471.38
2023-02-02T13:39:53.284Z,98483.00
2023-02-02T13:42:31.410Z,98479.31
2023-02-02T13:45:06.670Z,98494.03
2023-02-02T13:47:49.711Z,98497.75
2023-02-02T13:50:19.941Z,98491.91
2023-02-02T13:53:01.657Z,98492.22
2023-02-02T13:55:51.389Z,98488.47
2023-02-02T13:58:46.932Z,98488.16
2023-02-02T14:01:14.573Z,98491.72
2023-02-02T14:03:43.633Z,98489.31
2023-02-02T14:06:18.949Z,98489.00
2023-02-02T14:08:51.729Z,98508.56
2023-02-02T14:11:26.923Z,98496.75
2023-02-02T14:14:21.091Z,98491.59
2023-02-02T14:16:49.750Z,98492.31
2023-02-02T14:19:39.543Z,98497.31
2023-02-02T14:22:11.208Z,98495.28
2023-02-02T14:24:37.642Z,98501.38
2023-02-02T14:27:07.113Z,98520.91
2023-02-02T14:29:36.012Z,98534.56
2023-02-02T14:32:24.554Z,98505.97
2023-02-02T14:34:53.000Z,98515.28
2023-02-02T14:37:25.336Z,98533.47
2023-02-02T14:40:07.825Z,98519.28
2023-02-02T14:43:01.308Z,98523.94
2023-02-02T14:45:29.822Z,98517.47
2023-02-02T14:48:01.893Z,98520.09
2023-02-02T14:50:55.956Z,98525.75
2023-02-02T14:53:39.748Z,98532.16
2023-02-02T14:56:16.803Z,98540.84
2023-02-02T14:58:53.009Z,98546.94
2023-02-02T15:01:19.684Z,98532.16
2023-02-02T15:03:56.760Z,98533.81
2023-02-02T15:06:38.413Z,98538.28
2023-02-02T15:09:21.083Z,98541.16
2023-02-02T15:12:01.467Z,98547.31
2023-02-02T15:14:56.069Z,98552.59
2023-02-02T15:17:28.972Z,98545.00
2023-02-02T15:20:16.317Z,98558.97
2023-02-02T15:23:23.503Z,98556.97
2023-02-02T15:25:56.270Z,98567.84
2023-02-02T15:28:28.238Z,98557.06
2023-02-02T15:31:00.833Z,98583.38
2023-02-02T15:33:31.742Z,98561.28
2023-02-02T15:36:03.449Z,98566.38
2023-02-02T15:38:38.020Z,98575.19
2023-02-02T15:41:27.179Z,98574.31
2023-02-02T15:43:54.184Z,98568.50
2023-02-02T15:46:25.561Z,98570.84
2023-02-02T15:49:31.401Z,98574.22
2023-02-02T15:52:03.184Z,98577.56
2023-02-02T15:54:32.947Z,98578.38
2023-02-02T15:57:01.328Z,98580.28
2023-02-02T15:59:40.465Z,98595.84
2023-02-02T16:02:06.989Z,98585.00
2023-02-02T16:04:36.881Z,98585.00
2023-02-02T16:07:06.784Z,98588.38
2023-02-02T16:09:35.818Z,98580.78
2023-02-02T16:12:04.893Z,98584.78
2023-02-02T16:14:33.074Z,98592.06
2023-02-02T16:17:18.917Z,98591.84
2023-02-02T16:19:45.997Z,98588.03
2023-02-02T16:22:17.880Z,98595.47
2023-02-02T16:24:49.637Z,98589.34
2023-02-02T16:27:22.587Z,98591.25
2023-02-02T16:29:49.876Z,98589.94
2023-02-02T16:32:28.544Z,98580.72
2023-02-02T16:34:55.350Z,98589.44
2023-02-02T16:37:24.024Z,98583.75
2023-02-02T16:39:50.700Z,98585.59
2023-02-02T16:42:29.386Z,98590.97
2023-02-02T16:44:57.921Z,98588.41
2023-02-02T16:47:27.220Z,98586.19
2023-02-02T16:50:23.548Z,98593.34
2023-02-02T16:52:55.085Z,98587.56
2023-02-02T16:55:22.724Z,98590.38
2023-02-02T16:57:51.182Z,98592.81
2023-02-02T17:00:24.333Z,98605.66
2023-02-02T17:02:58.417Z,98603.66
2023-02-02T17:05:51.074Z,98600.19
2023-02-02T17:08:31.161Z,98609.25
2023-02-02T17:11:23.347Z,98609.03
2023-02-02T17:13:50.092Z,98597.09
2023-02-02T17:16:22.090Z,98612.19
2023-02-02T17:18:50.285Z,98608.81
2023-02-02T17:21:25.422Z,98610.50
2023-02-02T17:23:52.861Z,98609.03
2023-02-02T17:26:20.220Z,98608.56
2023-02-02T17:28:47.246Z,98612.50
2023-02-02T17:31:16.003Z,98616.41
2023-02-02T17:33:42.988Z,98611.91
2023-02-02T17:36:12.709Z,98616.47
2023-02-02T17:38:39.599Z,98616.22
2023-02-02T17:41:06.519Z,98606.59
2023-02-02T17:43:33.435Z,98608.78
2023-02-02T17:46:00.571Z,98609.47
2023-02-02T17:48:27.523Z,98616.16
2023-02-02T17:50:54.040Z,98616.75
2023-02-02T17:53:22.137Z,98619.69
2023-02-02T17:55:50.088Z,98627.50
2023-02-02T17:58:16.867Z,98621.53
2023-02-02T18:00:47.695Z,98629.41
2023-02-02T18:03:19.638Z,98622.34
2023-02-02T18:05:46.310Z,98625.22
2023-02-02T18:08:13.854Z,98632.31
2023-02-02T18:10:41.753Z,98627.81
2023-02-02T18:13:11.042Z,98627.81
2023-02-02T18:15:38.625Z,98629.81
2023-02-02T18:18:05.268Z,98631.88
2023-02-02T18:20:31.778Z,98624.44
2023-02-02T18:22:58.305Z,98627.38
2023-02-02T18:25:25.724Z,98635.56
2023-02-02T18:27:53.547Z,98619.78
2023-02-02T18:30:21.385Z,98621.41
2023-02-02T18:32:47.970Z,98616.56
2023-02-02T18:35:14.494Z,98627.09
2023-02-02T18:37:41.062Z,98622.72
2023-02-02T18:40:08.151Z,98635.91
2023-02-02T18:42:36.261Z,98623.25
2023-02-02T18:45:04.391Z,98624.34
2023-02-02T18:47:31.027Z,98631.59
2023-02-02T18:49:57.641Z,98627.38
2023-02-02T18:52:24.680Z,98627.53
2023-02-02T18:54:51.172Z,98631.59
2023-02-02T18:57:17.754Z,98634.22
2023-02-02T18:59:44.615Z,98647.13
2023-02-02T19:02:15.538Z,98639.78
2023-02-02T19:04:42.423Z,98635.56
2023-02-02T19:07:08.977Z,98638.63
2023-02-02T19:09:35.822Z,98632.38
2023-02-02T19:12:02.684Z,98633.25
2023-02-02T19:14:33.837Z,98643.66
2023-02-02T19:17:23.291Z,98641.09
2023-02-02T19:19:50.243Z,98640.72
2023-02-02T19:22:22.363Z,98635.91
2023-02-02T19:24:50.343Z,98636.50
2023-02-02T19:27:19.327Z,98639.22
2023-02-02T19:29:47.759Z,98644.13
2023-02-02T19:32:17.418Z,98640.13
2023-02-02T19:34:45.495Z,98638.31
2023-02-02T19:37:26.822Z,98643.78
2023-02-02T19:40:09.381Z,98649.41
2023-02-02T19:42:43.388Z,98645.72
2023-02-02T19:45:25.579Z,98651.06
2023-02-02T19:47:54.821Z,98649.84
2023-02-02T19:50:24.278Z,98657.53
2023-02-02T19:52:52.401Z,98652.69
2023-02-02T19:55:34.751Z,98652.00
2023-02-02T19:58:12.734Z,98654.16
2023-02-02T20:00:41.190Z,98650.47
2023-02-02T20:03:26.236Z,98658.84
2023-02-02T20:05:55.296Z,98655.63
2023-02-02T20:11:33.745Z,98652.00
2023-02-02T20:14:03.009Z,98653.81
2023-02-02T20:16:40.893Z,98648.03
2023-02-02T20:19:17.247Z,98648.19
2023-02-02T20:21:46.502Z,98654.78
2023-02-02T20:24:23.677Z,98647.22
2023-02-02T20:26:51.752Z,98655.31
2023-02-02T20:29:18.213Z,98659.47
2023-02-02T20:31:46.890Z,98648.75
2023-02-02T20:34:27.287Z,98648.22
2023-02-02T20:36:58.971Z,98654.97
2023-02-02T20:39:37.252Z,98654.97
2023-02-02T20:42:04.220Z,98662.09
2023-02-02T20:44:32.687Z,98657.38
2023-02-02T20:46:59.356Z,98651.41
2023-02-02T20:49:27.457Z,98654.44
2023-02-02T20:51:59.504Z,98658.50
2023-02-02T20:54:26.605Z,98657.81
2023-02-02T20:56:53.520Z,98659.16
2023-02-02T20:59:21.550Z,98663.34
2023-02-02T21:01:48.516Z,98663.56
2023-02-02T21:04:15.440Z,98657.25
2023-02-02T21:06:42.010Z,98665.13
2023-02-02T21:09:09.682Z,98662.69
2023-02-02T21:11:36.870Z,98660.25
2023-02-02T21:14:03.855Z,98657.59
2023-02-02T21:16:30.407Z,98662.31
2023-02-02T21:18:57.591Z,98657.09
2023-02-02T21:21:24.726Z,98666.53
2023-02-02T21:23:51.265Z,98669.13
2023-02-02T21:26:20.565Z,98660.94
2023-02-02T21:28:47.183Z,98666.16
2023-02-02T21:31:15.547Z,98664.69
2023-02-02T21:33:43.580Z,98663.06
2023-02-02T21:36:36.001Z,98662.09
2023-02-02T21:39:17.473Z,98662.03
2023-02-02T21:41:45.252Z,98665.63
2023-02-02T21:44:17.598Z,98668.38
2023-02-02T21:46:46.044Z,98670.44
2023-02-02T21:49:37.197Z,98672.13
2023-02-02T21:52:15.654Z,98668.28
2023-02-02T21:54:43.405Z,98672.09
2023-02-02T21:57:22.134Z,98668.50
2023-02-02T21:59:56.700Z,98669.38
2023-02-02T22:02:44.463Z,98671.00
2023-02-02T22:05:17.250Z,98671.38
2023-02-02T22:07:47.486Z,98673.94
2023-02-02T22:10:20.542Z,98664.09
2023-02-02T22:12:47.194Z,98665.09
2023-02-02T22:15:21.007Z,98666.53
2023-02-02T22:17:47.531Z,98670.06
2023-02-02T22:20:17.138Z,98665.28
2023-02-02T22:22:49.035Z,98662.69
2023-02-02T22:25:18.537Z,98670.88
2023-02-02T22:27:56.450Z,98663.00
2023-02-02T22:30:29.244Z,98663.72
2023-02-02T22:32:56.003Z,98667.03
2023-02-02T22:35:22.568Z,98663.41
2023-02-02T22:37:49.137Z,98661.81
2023-02-02T22:40:15.751Z,98666.16
2023-02-02T22:42:43.125Z,98670.88
2023-02-02T22:45:10.006Z,98667.97
2023-02-02T22:47:36.547Z,98668.84
2023-02-02T22:50:03.175Z,98670.94
2023-02-02T22:52:29.696Z,98678.00
2023-02-02T22:54:56.198Z,98673.88
2023-02-02T22:57:22.781Z,98676.44
2023-02-02T22:59:49.374Z,98674.94
2023-02-02T23:02:16.013Z,98680.34
2023-02-02T23:04:42.559Z,98680.34
2023-02-02T23:07:09.162Z,98682.03
2023-02-02T23:09:35.977Z,98680.84
2023-02-02T23:12:02.534Z,98679.94
2023-02-02T23:14:29.075Z,98682.38
2023-02-02T23:16:55.567Z,98676.84
2023-02-02T23:19:22.408Z,98679.13
2023-02-02T23:21:48.882Z,98687.91
2023-02-02T23:24:15.356Z,98687.75
2023-02-02T23:26:41.927Z,98685.97
2023-02-02T23:29:08.433Z,98680.22
2023-02-02T23:31:35.004Z,98685.50
2023-02-02T23:34:01.804Z,98675.84
2023-02-02T23:36:28.405Z,98678.28
2023-02-02T23:38:54.927Z,98676.63
2023-02-02T23:41:21.508Z,98683.69
2023-02-02T23:43:48.097Z,98679.22
2023-02-02T23:46:14.658Z,98678.84
2023-02-02T23:48:41.881Z,98680.09
2023-02-02T23:51:09.215Z,98681.06
2023-02-02T23:53:36.259Z,98670.06
2023-02-02T23:56:02.799Z,98680.91
2023-02-02T23:58:29.298Z,98682.88
